createdAt,value
2022-09-13T00:00:53.515Z,97.90
2022-09-13T00:03:21.932Z,97.90
2022-09-13T00:05:50.591Z,98.10
2022-09-13T00:08:19.340Z,98.00
2022-09-13T00:10:48.325Z,97.70
2022-09-13T00:13:18.278Z,97.30
2022-09-13T00:15:47.838Z,97.50
2022-09-13T00:18:17.929Z,97.40
2022-09-13T00:20:46.432Z,97.30
2022-09-13T00:23:14.795Z,97.40
2022-09-13T00:25:42.911Z,97.20
2022-09-13T00:28:10.889Z,97.20
2022-09-13T00:30:40.226Z,97.20
2022-09-13T00:33:08.226Z,97.30
2022-09-13T00:35:36.245Z,96.90
2022-09-13T00:38:04.249Z,97.20
2022-09-13T00:40:32.462Z,97.30
2022-09-13T00:43:00.630Z,97.10
2022-09-13T00:45:28.819Z,97.20
2022-09-13T00:48:02.715Z,97.30
2022-09-13T00:50:35.985Z,97.40
2022-09-13T00:53:09.115Z,97.20
2022-09-13T00:55:43.020Z,97.20
2022-09-13T00:58:15.932Z,97.50
2022-09-13T01:00:45.225Z,97.50
2022-09-13T01:03:16.078Z,97.40
2022-09-13T01:05:48.391Z,97.40
2022-09-13T01:08:22.993Z,97.30
2022-09-13T01:10:52.952Z,97.00
2022-09-13T01:13:22.905Z,96.90
2022-09-13T01:15:51.937Z,97.00
2022-09-13T01:18:21.820Z,97.20
2022-09-13T01:21:19.716Z,97.60
2022-09-13T01:24:14.395Z,97.30
2022-09-13T01:27:16.751Z,97.20
2022-09-13T01:30:16.920Z,97.30
2022-09-13T01:33:12.093Z,97.20
2022-09-13T01:36:16.423Z,97.20
2022-09-13T01:38:54.811Z,97.60
2022-09-13T01:41:46.534Z,97.40
2022-09-13T01:44:26.922Z,98.10
2022-09-13T01:47:04.682Z,98.20
2022-09-13T01:49:37.912Z,98.30
2022-09-13T01:52:13.179Z,98.10
2022-09-13T01:54:51.784Z,98.40
2022-09-13T01:57:28.950Z,98.20
2022-09-13T02:00:02.310Z,98.20
2022-09-13T02:02:35.919Z,98.40
2022-09-13T02:05:09.230Z,98.20
2022-09-13T02:07:41.474Z,98.10
2022-09-13T02:10:14.398Z,98.10
2022-09-13T02:12:44.241Z,98.30
2022-09-13T02:15:17.156Z,98.10
2022-09-13T02:17:50.719Z,98.20
2022-09-13T02:20:22.500Z,97.80
2022-09-13T02:22:57.992Z,98.10
2022-09-13T02:25:27.799Z,98.20
2022-09-13T02:28:01.701Z,98.10
2022-09-13T02:30:33.036Z,98.20
2022-09-13T02:33:06.317Z,98.10
2022-09-13T02:35:37.800Z,98.00
2022-09-13T02:38:10.022Z,97.80
2022-09-13T02:40:44.191Z,97.90
2022-09-13T02:43:16.205Z,98.00
2022-09-13T02:45:50.970Z,97.80
2022-09-13T02:48:32.403Z,98.00
2022-09-13T02:51:08.062Z,98.00
2022-09-13T02:53:44.754Z,98.50
2022-09-13T02:56:23.110Z,98.60
2022-09-13T02:58:58.045Z,98.20
2022-09-13T03:01:26.412Z,98.50
2022-09-13T03:03:56.212Z,98.40
2022-09-13T03:06:25.618Z,98.70
2022-09-13T03:08:54.035Z,98.30
2022-09-13T03:11:35.097Z,98.40
2022-09-13T03:14:19.114Z,98.40
2022-09-13T03:17:07.500Z,98.90
2022-09-13T03:20:04.684Z,98.70
2022-09-13T03:22:56.563Z,98.50
2022-09-13T03:25:35.800Z,98.10
2022-09-13T03:28:14.727Z,98.70
2022-09-13T03:30:49.235Z,98.60
2022-09-13T03:33:29.302Z,98.90
2022-09-13T03:36:06.241Z,98.60
2022-09-13T03:38:39.539Z,98.70
2022-09-13T03:41:12.066Z,98.70
2022-09-13T03:43:45.021Z,98.90
2022-09-13T03:46:22.294Z,99.80
2022-09-13T03:48:51.422Z,99.40
2022-09-13T03:51:21.550Z,99.20
2022-09-13T03:53:56.275Z,99.10
2022-09-13T03:56:24.328Z,99.30
2022-09-13T03:58:55.073Z,99.20
2022-09-13T04:01:25.381Z,98.90
2022-09-13T04:03:56.794Z,99.20
2022-09-13T04:06:26.803Z,98.90
2022-09-13T04:08:54.873Z,99.30
2022-09-13T04:11:24.174Z,99.30
2022-09-13T04:13:52.421Z,99.20
2022-09-13T04:16:20.499Z,99.10
2022-09-13T04:18:48.538Z,99.20
2022-09-13T04:21:17.731Z,99.10
2022-09-13T04:23:51.360Z,98.80
2022-09-13T04:26:19.371Z,99.20
2022-09-13T04:28:47.490Z,99.20
2022-09-13T04:31:15.676Z,99.20
2022-09-13T04:33:43.731Z,99.30
2022-09-13T04:36:11.777Z,99.30
2022-09-13T04:38:39.761Z,99.60
2022-09-13T04:41:10.847Z,99.50
2022-09-13T04:43:38.796Z,99.50
2022-09-13T04:46:06.976Z,99.30
2022-09-13T04:48:35.703Z,99.40
2022-09-13T04:51:04.671Z,99.30
2022-09-13T04:53:32.803Z,99.40
2022-09-13T04:56:02.760Z,99.30
2022-09-13T04:58:32.955Z,99.50
2022-09-13T05:01:02.921Z,99.90
2022-09-13T05:03:31.727Z,99.90
2022-09-13T05:06:03.906Z,99.90
2022-09-13T05:08:32.479Z,99.90
2022-09-13T05:11:00.633Z,99.90
2022-09-13T05:13:28.813Z,99.90
2022-09-13T05:15:59.302Z,99.90
2022-09-13T05:18:27.879Z,99.90
2022-09-13T05:20:56.540Z,99.90
2022-09-13T05:23:25.334Z,99.80
2022-09-13T05:25:56.755Z,99.90
2022-09-13T05:28:25.798Z,99.90
2022-09-13T05:30:59.676Z,99.90
2022-09-13T05:33:30.971Z,99.90
2022-09-13T05:35:59.217Z,99.80
2022-09-13T05:38:27.252Z,99.90
2022-09-13T05:40:57.049Z,99.90
2022-09-13T05:43:26.522Z,99.90
2022-09-13T05:46:03.850Z,99.90
2022-09-13T05:48:32.571Z,99.80
2022-09-13T05:51:06.969Z,99.90
2022-09-13T05:53:35.044Z,99.90
2022-09-13T05:56:03.455Z,99.90
2022-09-13T05:58:31.494Z,99.90
2022-09-13T06:00:59.522Z,99.90
2022-09-13T06:03:29.019Z,99.90
2022-09-13T06:05:58.143Z,99.90
2022-09-13T06:08:26.597Z,99.90
2022-09-13T06:10:56.210Z,99.90
2022-09-13T06:13:24.283Z,99.90
2022-09-13T06:15:52.809Z,99.90
2022-09-13T06:18:21.284Z,99.90
2022-09-13T06:20:50.696Z,99.90
2022-09-13T06:23:18.726Z,99.90
2022-09-13T06:25:46.779Z,99.90
2022-09-13T06:28:15.247Z,99.90
2022-09-13T06:30:43.369Z,99.90
2022-09-13T06:33:11.375Z,99.90
2022-09-13T06:35:39.373Z,99.90
2022-09-13T06:38:08.765Z,99.90
2022-09-13T06:40:36.791Z,99.90
2022-09-13T06:43:04.817Z,99.90
2022-09-13T06:45:32.791Z,99.90
2022-09-13T06:48:00.776Z,99.90
2022-09-13T06:50:28.820Z,99.90
2022-09-13T06:52:57.848Z,99.90
2022-09-13T06:55:27.950Z,99.90
2022-09-13T06:57:55.951Z,99.90
2022-09-13T07:00:24.014Z,99.90
2022-09-13T07:02:52.848Z,99.90
2022-09-13T07:05:21.012Z,99.90
2022-09-13T07:07:49.251Z,99.90
2022-09-13T07:10:17.384Z,99.90
2022-09-13T07:12:46.721Z,99.90
2022-09-13T07:15:14.906Z,99.70
2022-09-13T07:17:42.976Z,99.80
2022-09-13T07:20:11.315Z,99.60
2022-09-13T07:22:39.290Z,99.10
2022-09-13T07:25:08.454Z,99.10
2022-09-13T07:27:36.502Z,99.90
2022-09-13T07:30:06.990Z,99.00
2022-09-13T07:32:35.069Z,99.90
2022-09-13T07:35:03.038Z,99.80
2022-09-13T07:37:31.247Z,99.90
2022-09-13T07:39:59.264Z,99.80
2022-09-13T07:42:27.864Z,99.50
2022-09-13T07:44:55.842Z,99.20
2022-09-13T07:47:25.242Z,99.40
2022-09-13T07:49:53.436Z,99.00
2022-09-13T07:52:21.510Z,99.10
2022-09-13T07:54:49.523Z,99.30
2022-09-13T07:57:17.591Z,99.90
2022-09-13T07:59:45.576Z,99.90
2022-09-13T08:02:13.975Z,99.80
2022-09-13T08:04:43.408Z,98.80
2022-09-13T08:07:11.431Z,99.10
2022-09-13T08:09:39.499Z,99.30
2022-09-13T08:12:07.995Z,98.60
2022-09-13T08:14:35.998Z,98.00
2022-09-13T08:17:03.990Z,98.10
2022-09-13T08:19:31.990Z,98.20
2022-09-13T08:22:01.398Z,98.00
2022-09-13T08:24:29.429Z,97.90
2022-09-13T08:26:57.451Z,98.00
2022-09-13T08:29:26.289Z,97.90
2022-09-13T08:31:54.306Z,97.30
2022-09-13T08:34:22.407Z,97.70
2022-09-13T08:36:50.394Z,97.10
2022-09-13T08:39:19.756Z,97.10
2022-09-13T08:42:09.722Z,96.90
2022-09-13T08:44:43.434Z,96.80
2022-09-13T08:47:25.511Z,97.20
2022-09-13T08:50:00.036Z,96.80
2022-09-13T08:52:31.918Z,97.10
2022-09-13T08:55:04.543Z,96.30
2022-09-13T08:57:42.040Z,96.10
2022-09-13T09:00:20.820Z,96.00
2022-09-13T09:03:11.296Z,96.00
2022-09-13T09:05:47.758Z,95.90
2022-09-13T09:08:27.116Z,95.20
2022-09-13T09:11:00.084Z,95.10
2022-09-13T09:13:32.410Z,94.50
2022-09-13T09:16:03.800Z,94.70
2022-09-13T09:18:36.786Z,95.40
2022-09-13T09:21:06.063Z,94.60
2022-09-13T09:23:40.554Z,94.40
2022-09-13T09:26:18.346Z,94.50
2022-09-13T09:28:50.949Z,93.90
2022-09-13T09:31:27.631Z,94.20
2022-09-13T09:34:09.527Z,94.50
2022-09-13T09:36:43.356Z,94.30
2022-09-13T09:39:14.096Z,93.90
2022-09-13T09:41:45.173Z,94.30
2022-09-13T09:44:20.258Z,93.60
2022-09-13T09:46:51.465Z,94.10
2022-09-13T09:49:41.159Z,93.70
2022-09-13T09:52:14.605Z,93.80
2022-09-13T09:54:42.627Z,94.60
2022-09-13T09:57:12.132Z,94.30
2022-09-13T09:59:40.181Z,94.70
2022-09-13T10:02:17.276Z,93.60
2022-09-13T10:04:56.232Z,93.50
2022-09-13T10:07:27.965Z,93.60
2022-09-13T10:10:01.284Z,93.40
2022-09-13T10:12:34.172Z,93.20
2022-09-13T10:15:18.154Z,93.20
2022-09-13T10:18:21.197Z,92.50
2022-09-13T10:21:02.955Z,91.50
2022-09-13T10:23:31.975Z,91.00
2022-09-13T10:26:10.070Z,90.20
2022-09-13T10:28:47.094Z,89.90
2022-09-13T10:31:17.839Z,86.30
2022-09-13T10:33:57.555Z,85.30
2022-09-13T10:36:51.224Z,90.10
2022-09-13T10:39:21.319Z,89.50
2022-09-13T10:41:55.474Z,87.80
2022-09-13T10:44:29.769Z,90.00
2022-09-13T10:46:58.931Z,90.40
2022-09-13T10:49:37.644Z,90.50
2022-09-13T10:52:24.664Z,88.30
2022-09-13T10:54:53.327Z,88.60
2022-09-13T10:57:35.250Z,85.70
2022-09-13T11:00:09.065Z,86.50
2022-09-13T11:03:06.454Z,86.40
2022-09-13T11:05:40.969Z,86.30
2022-09-13T11:08:36.484Z,87.70
2022-09-13T11:11:13.323Z,86.00
2022-09-13T11:13:56.172Z,85.60
2022-09-13T11:16:42.580Z,85.60
2022-09-13T11:19:46.554Z,86.70
2022-09-13T11:22:35.242Z,86.00
2022-09-13T11:25:14.658Z,86.00
2022-09-13T11:27:52.555Z,85.90
2022-09-13T11:30:25.393Z,84.90
2022-09-13T11:33:22.817Z,84.40
2022-09-13T11:36:05.563Z,84.10
2022-09-13T11:38:41.757Z,83.30
2022-09-13T11:41:28.196Z,86.10
2022-09-13T11:44:18.346Z,81.80
2022-09-13T11:46:55.766Z,85.40
2022-09-13T11:49:39.006Z,84.80
2022-09-13T11:52:16.733Z,82.20
2022-09-13T11:55:00.369Z,84.10
2022-09-13T11:57:33.777Z,85.00
2022-09-13T12:00:05.595Z,85.90
2022-09-13T12:02:41.665Z,83.70
2022-09-13T12:05:24.521Z,82.20
2022-09-13T12:07:59.074Z,81.30
2022-09-13T12:10:31.049Z,83.40
2022-09-13T12:13:01.628Z,83.60
2022-09-13T12:15:37.892Z,81.80
2022-09-13T12:18:14.676Z,84.80
2022-09-13T12:20:49.106Z,81.50
2022-09-13T12:23:21.841Z,80.10
2022-09-13T12:25:56.718Z,81.50
2022-09-13T12:28:28.378Z,82.30
2022-09-13T12:31:00.712Z,82.00
2022-09-13T12:33:29.242Z,81.70
2022-09-13T12:36:22.915Z,81.90
2022-09-13T12:39:09.542Z,80.60
2022-09-13T12:41:50.510Z,81.90
2022-09-13T12:44:48.082Z,84.50
2022-09-13T12:47:49.696Z,83.80
2022-09-13T12:50:45.954Z,81.80
2022-09-13T12:53:38.948Z,78.90
2022-09-13T12:56:27.688Z,80.50
2022-09-13T12:59:35.740Z,81.80
2022-09-13T13:02:05.716Z,81.80
2022-09-13T13:04:36.911Z,83.40
2022-09-13T13:07:08.076Z,83.20
2022-09-13T13:09:42.358Z,82.40
2022-09-13T13:12:11.740Z,80.80
2022-09-13T13:14:53.376Z,81.40
2022-09-13T13:17:46.741Z,82.00
2022-09-13T13:20:45.907Z,81.70
2022-09-13T13:23:24.424Z,82.10
2022-09-13T13:26:31.255Z,83.20
2022-09-13T13:29:17.084Z,82.90
2022-09-13T13:32:07.329Z,83.50
2022-09-13T13:34:42.779Z,80.80
2022-09-13T13:37:32.226Z,80.80
2022-09-13T13:40:21.763Z,81.00
2022-09-13T13:42:50.149Z,81.00
2022-09-13T13:45:26.092Z,82.00
2022-09-13T13:48:10.423Z,82.60
2022-09-13T13:51:12.515Z,82.10
2022-09-13T13:53:42.908Z,84.10
2022-09-13T13:56:20.414Z,84.00
2022-09-13T13:58:52.578Z,81.50
2022-09-13T14:01:27.061Z,83.00
2022-09-13T14:04:33.118Z,83.70
2022-09-13T14:07:19.404Z,83.10
2022-09-13T14:09:54.879Z,83.20
2022-09-13T14:12:37.970Z,83.30
2022-09-13T14:15:22.093Z,82.80
2022-09-13T14:18:05.094Z,84.80
2022-09-13T14:20:33.115Z,83.30
2022-09-13T14:23:17.189Z,84.60
2022-09-13T14:25:45.559Z,85.10
2022-09-13T14:28:18.828Z,84.60
2022-09-13T14:30:47.808Z,84.70
2022-09-13T14:33:30.812Z,84.30
2022-09-13T14:36:04.346Z,85.30
2022-09-13T14:38:36.584Z,84.40
2022-09-13T14:41:15.380Z,85.30
2022-09-13T14:43:44.142Z,85.90
2022-09-13T14:46:15.990Z,84.60
2022-09-13T14:48:51.418Z,84.20
2022-09-13T14:51:23.571Z,84.10
2022-09-13T14:53:53.707Z,83.70
2022-09-13T14:56:29.167Z,85.80
2022-09-13T14:59:00.651Z,86.60
2022-09-13T15:01:32.621Z,88.80
2022-09-13T15:04:04.562Z,88.50
2022-09-13T15:06:34.873Z,89.40
2022-09-13T15:09:16.254Z,89.40
2022-09-13T15:11:57.975Z,89.10
2022-09-13T15:14:28.834Z,87.70
2022-09-13T15:17:01.960Z,89.50
2022-09-13T15:19:36.895Z,90.60
2022-09-13T15:22:20.764Z,90.30
2022-09-13T15:24:51.873Z,90.20
2022-09-13T15:27:23.150Z,90.40
2022-09-13T15:29:53.024Z,90.40
2022-09-13T15:32:23.928Z,90.30
2022-09-13T15:34:53.439Z,90.20
2022-09-13T15:37:34.647Z,90.70
2022-09-13T15:40:30.529Z,91.30
2022-09-13T15:42:58.673Z,91.40
2022-09-13T15:45:26.851Z,91.60
2022-09-13T15:47:54.904Z,92.20
2022-09-13T15:50:28.897Z,92.20
2022-09-13T15:52:57.171Z,92.40
2022-09-13T15:55:26.227Z,92.00
2022-09-13T15:57:54.256Z,91.40
2022-09-13T16:00:24.259Z,91.30
2022-09-13T16:02:52.511Z,91.20
2022-09-13T16:05:21.002Z,91.20
2022-09-13T16:07:50.431Z,91.30
2022-09-13T16:10:20.966Z,91.40
2022-09-13T16:12:49.128Z,91.60
2022-09-13T16:15:17.302Z,91.70
2022-09-13T16:17:45.538Z,91.80
2022-09-13T16:20:15.292Z,92.00
2022-09-13T16:22:43.622Z,91.90
2022-09-13T16:25:14.173Z,91.80
2022-09-13T16:27:42.759Z,92.00
2022-09-13T16:30:13.664Z,92.30
2022-09-13T16:32:42.322Z,92.00
2022-09-13T16:35:11.135Z,91.60
2022-09-13T16:37:39.797Z,91.60
2022-09-13T16:40:09.967Z,91.70
2022-09-13T16:42:39.602Z,92.00
2022-09-13T16:45:08.930Z,92.40
2022-09-13T16:47:37.266Z,92.40
2022-09-13T16:50:06.359Z,92.80
2022-09-13T16:52:35.500Z,92.80
2022-09-13T16:55:03.977Z,92.80
2022-09-13T16:57:32.031Z,92.70
2022-09-13T17:00:03.806Z,92.90
2022-09-13T17:02:32.023Z,92.90
2022-09-13T17:05:00.661Z,92.80
2022-09-13T17:07:28.678Z,92.90
2022-09-13T17:09:57.742Z,93.00
2022-09-13T17:12:25.970Z,93.20
2022-09-13T17:14:55.008Z,93.10
2022-09-13T17:17:24.717Z,93.20
2022-09-13T17:19:52.954Z,93.20
2022-09-13T17:22:20.952Z,93.20
2022-09-13T17:24:49.301Z,93.40
2022-09-13T17:27:17.382Z,93.60
2022-09-13T17:29:45.481Z,93.70
2022-09-13T17:32:13.571Z,93.80
2022-09-13T17:34:42.979Z,93.90
2022-09-13T17:37:11.213Z,94.00
2022-09-13T17:39:39.372Z,93.90
2022-09-13T17:42:07.739Z,93.90
2022-09-13T17:44:36.339Z,94.10
2022-09-13T17:47:06.166Z,94.20
2022-09-13T17:49:34.570Z,94.50
2022-09-13T17:52:04.531Z,94.90
2022-09-13T17:54:32.622Z,94.50
2022-09-13T17:57:00.686Z,94.40
2022-09-13T17:59:30.575Z,94.50
2022-09-13T18:02:00.868Z,94.60
2022-09-13T18:04:29.160Z,94.50
2022-09-13T18:06:57.282Z,94.60
2022-09-13T18:09:26.981Z,94.60
2022-09-13T18:11:55.046Z,94.80
2022-09-13T18:14:23.842Z,94.90
2022-09-13T18:16:55.687Z,95.10
2022-09-13T18:19:44.394Z,95.10
2022-09-13T18:22:12.381Z,95.00
2022-09-13T18:24:42.166Z,95.30
2022-09-13T18:27:10.379Z,95.30
2022-09-13T18:29:38.453Z,95.40
2022-09-13T18:32:06.985Z,95.50
2022-09-13T18:34:34.980Z,95.40
2022-09-13T18:37:02.995Z,95.40
2022-09-13T18:39:31.551Z,95.60
2022-09-13T18:42:01.613Z,95.60
2022-09-13T18:44:30.306Z,95.50
2022-09-13T18:46:58.788Z,95.60
2022-09-13T18:49:26.992Z,95.70
2022-09-13T18:51:55.060Z,95.70
2022-09-13T18:54:23.033Z,96.00
2022-09-13T18:56:51.054Z,96.00
2022-09-13T18:59:20.424Z,96.40
2022-09-13T19:01:48.855Z,96.30
2022-09-13T19:04:19.410Z,96.30
2022-09-13T19:06:48.979Z,96.00
2022-09-13T19:09:20.599Z,96.20
2022-09-13T19:11:50.279Z,96.40
2022-09-13T19:14:22.853Z,96.30
2022-09-13T19:16:51.664Z,96.50
2022-09-13T19:19:20.530Z,96.80
2022-09-13T19:21:48.782Z,96.70
2022-09-13T19:24:19.099Z,96.90
2022-09-13T19:26:49.235Z,96.80
2022-09-13T19:29:18.896Z,97.00
2022-09-13T19:31:49.899Z,96.90
2022-09-13T19:34:19.457Z,97.10
2022-09-13T19:36:50.345Z,97.20
2022-09-13T19:39:18.568Z,97.30
2022-09-13T19:41:46.610Z,97.40
2022-09-13T19:44:15.183Z,97.30
2022-09-13T19:46:43.757Z,97.40
2022-09-13T19:49:16.453Z,97.50
2022-09-13T19:51:50.239Z,97.40
2022-09-13T19:54:20.568Z,97.60
2022-09-13T19:56:50.038Z,97.70
2022-09-13T19:59:20.409Z,97.80
2022-09-13T20:01:49.050Z,97.80
2022-09-13T20:04:20.845Z,97.90
2022-09-13T20:06:50.437Z,97.80
2022-09-13T20:09:20.586Z,97.80
2022-09-13T20:11:49.129Z,97.60
2022-09-13T20:14:19.297Z,97.70
2022-09-13T20:16:47.903Z,97.70
2022-09-13T20:22:07.960Z,97.90
2022-09-13T20:24:36.028Z,98.00
2022-09-13T20:27:04.115Z,98.20
2022-09-13T20:29:32.463Z,98.50
2022-09-13T20:32:02.044Z,98.70
2022-09-13T20:34:31.720Z,98.70
2022-09-13T20:36:59.910Z,98.70
2022-09-13T20:39:27.978Z,98.70
2022-09-13T20:41:56.655Z,98.50
2022-09-13T20:44:24.598Z,98.60
2022-09-13T20:46:52.623Z,98.40
2022-09-13T20:49:21.806Z,98.50
2022-09-13T20:51:51.299Z,98.60
2022-09-13T20:54:19.759Z,98.30
2022-09-13T20:56:47.831Z,98.50
2022-09-13T20:59:15.849Z,98.40
2022-09-13T21:01:44.088Z,98.40
2022-09-13T21:04:12.150Z,98.50
2022-09-13T21:07:02.633Z,98.60
2022-09-13T21:09:32.448Z,98.70
2022-09-13T21:12:01.240Z,98.70
2022-09-13T21:14:32.210Z,98.80
2022-09-13T21:17:00.388Z,99.00
2022-09-13T21:19:29.741Z,98.90
2022-09-13T21:21:57.812Z,98.80
2022-09-13T21:24:25.971Z,98.80
2022-09-13T21:26:55.526Z,98.80
2022-09-13T21:29:23.887Z,98.80
2022-09-13T21:31:52.323Z,98.90
2022-09-13T21:34:20.629Z,99.00
2022-09-13T21:36:49.128Z,98.90
2022-09-13T21:39:18.528Z,98.90
2022-09-13T21:41:47.535Z,98.80
2022-09-13T21:44:17.856Z,98.90
2022-09-13T21:46:46.669Z,98.80
2022-09-13T21:49:15.703Z,98.80
2022-09-13T21:51:45.617Z,98.80
2022-09-13T21:54:15.898Z,98.60
2022-09-13T21:56:45.254Z,98.70
2022-09-13T21:59:15.507Z,98.80
2022-09-13T22:01:48.508Z,99.10
2022-09-13T22:04:18.283Z,99.30
2022-09-13T22:06:47.892Z,99.50
2022-09-13T22:09:16.718Z,99.50
2022-09-13T22:11:46.279Z,99.40
2022-09-13T22:14:16.531Z,99.40
2022-09-13T22:16:47.616Z,99.30
2022-09-13T22:19:17.715Z,99.20
2022-09-13T22:21:47.896Z,99.30
2022-09-13T22:24:18.750Z,99.10
2022-09-13T22:26:48.499Z,99.20
2022-09-13T22:29:17.387Z,99.10
2022-09-13T22:31:49.618Z,99.00
2022-09-13T22:34:19.365Z,99.10
2022-09-13T22:36:47.862Z,99.10
2022-09-13T22:39:17.765Z,99.40
2022-09-13T22:41:46.780Z,99.50
2022-09-13T22:44:15.485Z,99.60
2022-09-13T22:46:47.434Z,99.70
2022-09-13T22:49:17.378Z,99.60
2022-09-13T22:51:46.541Z,99.50
2022-09-13T22:54:15.088Z,99.70
2022-09-13T22:56:43.207Z,99.60
2022-09-13T22:59:15.008Z,99.60
2022-09-13T23:01:43.532Z,99.60
2022-09-13T23:04:13.369Z,99.70
2022-09-13T23:06:43.704Z,99.60
2022-09-13T23:09:13.866Z,99.40
2022-09-13T23:11:41.974Z,99.50
2022-09-13T23:14:11.951Z,99.50
2022-09-13T23:16:42.808Z,99.50
2022-09-13T23:19:13.220Z,99.60
2022-09-13T23:21:41.724Z,99.60
2022-09-13T23:24:13.119Z,99.60
2022-09-13T23:26:41.347Z,99.60
2022-09-13T23:29:13.574Z,99.50
2022-09-13T23:31:42.435Z,99.60
2022-09-13T23:34:12.947Z,99.60
2022-09-13T23:36:42.413Z,99.60
2022-09-13T23:39:16.246Z,99.50
2022-09-13T23:41:44.922Z,99.60
2022-09-13T23:44:13.018Z,99.50
2022-09-13T23:46:41.053Z,99.40
2022-09-13T23:49:09.096Z,99.30
2022-09-13T23:51:38.447Z,99.30
2022-09-13T23:54:06.698Z,99.40
2022-09-13T23:56:36.000Z,99.50
2022-09-13T23:59:05.349Z,99.20
